sensor_id;sensor_type;location;lat;lon;timestamp;pressure;altitude;pressure_sealevel;temperature;humidity
75006;BME280;63553;51.814;4.600;2023-03-03T00:02:06;102665.78;;;12.94;60.77
75006;BME280;63553;51.814;4.600;2023-03-03T00:04:31;102671.97;;;12.91;60.83
75006;BME280;63553;51.814;4.600;2023-03-03T00:06:57;102665.81;;;12.89;61.02
75006;BME280;63553;51.814;4.600;2023-03-03T00:09:22;102672.22;;;12.90;60.46
75006;BME280;63553;51.814;4.600;2023-03-03T00:11:53;102662.78;;;12.86;60.88
75006;BME280;63553;51.814;4.600;2023-03-03T00:14:28;102666.72;;;12.85;60.27
75006;BME280;63553;51.814;4.600;2023-03-03T00:16:54;102667.81;;;12.83;60.52
75006;BME280;63553;51.814;4.600;2023-03-03T00:19:20;102662.28;;;12.78;61.09
75006;BME280;63553;51.814;4.600;2023-03-03T00:21:48;102664.25;;;12.78;60.74
75006;BME280;63553;51.814;4.600;2023-03-03T00:24:23;102667.09;;;12.73;61.36
75006;BME280;63553;51.814;4.600;2023-03-03T00:29:29;102669.28;;;12.76;61.13
75006;BME280;63553;51.814;4.600;2023-03-03T00:32:11;102659.00;;;12.71;61.01
75006;BME280;63553;51.814;4.600;2023-03-03T00:34:41;102667.94;;;12.73;61.41
75006;BME280;63553;51.814;4.600;2023-03-03T00:37:37;102657.94;;;12.67;61.69
75006;BME280;63553;51.814;4.600;2023-03-03T00:40:17;102666.25;;;12.72;61.22
75006;BME280;63553;51.814;4.600;2023-03-03T00:42:48;102667.38;;;12.71;61.67
75006;BME280;63553;51.814;4.600;2023-03-03T00:50:42;102672.47;;;12.64;61.72
75006;BME280;63553;51.814;4.600;2023-03-03T00:53:15;102666.63;;;12.61;61.56
75006;BME280;63553;51.814;4.600;2023-03-03T00:55:42;102668.00;;;12.63;61.08
75006;BME280;63553;51.814;4.600;2023-03-03T00:58:07;102667.75;;;12.60;61.16
75006;BME280;63553;51.814;4.600;2023-03-03T01:00:33;102670.25;;;12.61;61.76
75006;BME280;63553;51.814;4.600;2023-03-03T01:03:04;102668.31;;;12.57;61.82
75006;BME280;63553;51.814;4.600;2023-03-03T01:05:30;102674.22;;;12.55;61.99
75006;BME280;63553;51.814;4.600;2023-03-03T01:07:56;102669.22;;;12.52;61.56
75006;BME280;63553;51.814;4.600;2023-03-03T01:10:21;102669.78;;;12.49;61.78
75006;BME280;63553;51.814;4.600;2023-03-03T01:12:46;102672.53;;;12.54;61.55
75006;BME280;63553;51.814;4.600;2023-03-03T01:15:13;102671.44;;;12.50;62.09
75006;BME280;63553;51.814;4.600;2023-03-03T01:17:40;102679.22;;;12.53;62.24
75006;BME280;63553;51.814;4.600;2023-03-03T01:20:08;102681.22;;;12.53;62.60
75006;BME280;63553;51.814;4.600;2023-03-03T01:22:34;102681.75;;;12.55;62.66
75006;BME280;63553;51.814;4.600;2023-03-03T01:24:59;102669.75;;;12.54;62.80
75006;BME280;63553;51.814;4.600;2023-03-03T01:27:25;102677.53;;;12.57;62.78
75006;BME280;63553;51.814;4.600;2023-03-03T01:29:52;102677.84;;;12.56;62.82
75006;BME280;63553;51.814;4.600;2023-03-03T01:32:17;102675.88;;;12.56;63.00
75006;BME280;63553;51.814;4.600;2023-03-03T01:34:42;102681.16;;;12.58;63.19
75006;BME280;63553;51.814;4.600;2023-03-03T01:37:08;102661.63;;;12.58;63.14
75006;BME280;63553;51.814;4.600;2023-03-03T01:39:33;102668.06;;;12.58;63.31
75006;BME280;63553;51.814;4.600;2023-03-03T01:41:58;102668.06;;;12.58;63.51
75006;BME280;63553;51.814;4.600;2023-03-03T01:44:24;102672.50;;;12.59;63.62
75006;BME280;63553;51.814;4.600;2023-03-03T01:47:15;102675.28;;;12.59;63.44
75006;BME280;63553;51.814;4.600;2023-03-03T01:49:58;102674.47;;;12.59;63.62
75006;BME280;63553;51.814;4.600;2023-03-03T01:55:02;102673.06;;;12.56;63.55
75006;BME280;63553;51.814;4.600;2023-03-03T01:57:35;102662.75;;;12.57;63.64
75006;BME280;63553;51.814;4.600;2023-03-03T02:00:02;102667.50;;;12.56;63.59
75006;BME280;63553;51.814;4.600;2023-03-03T02:02:30;102657.50;;;12.50;63.51
75006;BME280;63553;51.814;4.600;2023-03-03T02:04:56;102664.16;;;12.54;63.47
75006;BME280;63553;51.814;4.600;2023-03-03T02:07:23;102655.00;;;12.49;63.68
75006;BME280;63553;51.814;4.600;2023-03-03T02:09:56;102672.88;;;12.48;63.48
75006;BME280;63553;51.814;4.600;2023-03-03T02:12:31;102662.28;;;12.45;63.44
75006;BME280;63553;51.814;4.600;2023-03-03T02:14:57;102660.38;;;12.40;63.13
75006;BME280;63553;51.814;4.600;2023-03-03T02:17:23;102667.38;;;12.38;63.43
75006;BME280;63553;51.814;4.600;2023-03-03T02:20:14;102667.38;;;12.38;63.32
75006;BME280;63553;51.814;4.600;2023-03-03T02:22:52;102675.19;;;12.36;63.31
75006;BME280;63553;51.814;4.600;2023-03-03T02:25:46;102679.13;;;12.35;63.07
75006;BME280;63553;51.814;4.600;2023-03-03T02:28:13;102671.91;;;12.29;62.95
75006;BME280;63553;51.814;4.600;2023-03-03T02:30:39;102676.09;;;12.26;63.25
75006;BME280;63553;51.814;4.600;2023-03-03T02:33:05;102661.59;;;12.24;63.42
75006;BME280;63553;51.814;4.600;2023-03-03T02:35:34;102671.63;;;12.25;62.86
75006;BME280;63553;51.814;4.600;2023-03-03T02:40:41;102668.59;;;12.21;63.41
75006;BME280;63553;51.814;4.600;2023-03-03T02:43:08;102660.53;;;12.20;63.30
75006;BME280;63553;51.814;4.600;2023-03-03T02:45:41;102658.84;;;12.19;62.99
75006;BME280;63553;51.814;4.600;2023-03-03T02:48:07;102666.69;;;12.17;62.95
75006;BME280;63553;51.814;4.600;2023-03-03T02:50:32;102670.59;;;12.16;63.00
75006;BME280;63553;51.814;4.600;2023-03-03T02:52:57;102657.78;;;12.10;62.99
75006;BME280;63553;51.814;4.600;2023-03-03T02:55:23;102663.06;;;12.16;62.60
75006;BME280;63553;51.814;4.600;2023-03-03T02:57:48;102665.28;;;12.14;62.76
75006;BME280;63553;51.814;4.600;2023-03-03T03:00:14;102666.94;;;12.15;62.66
75006;BME280;63553;51.814;4.600;2023-03-03T03:02:39;102665.84;;;12.16;63.26
75006;BME280;63553;51.814;4.600;2023-03-03T03:05:04;102664.16;;;12.15;63.24
75006;BME280;63553;51.814;4.600;2023-03-03T03:07:30;102676.69;;;12.18;62.87
75006;BME280;63553;51.814;4.600;2023-03-03T03:09:55;102667.25;;;12.14;62.89
75006;BME280;63553;51.814;4.600;2023-03-03T03:12:20;102669.47;;;12.12;62.62
75006;BME280;63553;51.814;4.600;2023-03-03T03:14:46;102667.84;;;12.11;62.43
75006;BME280;63553;51.814;4.600;2023-03-03T03:17:11;102670.06;;;12.09;62.42
75006;BME280;63553;51.814;4.600;2023-03-03T03:19:37;102678.41;;;12.09;62.67
75006;BME280;63553;51.814;4.600;2023-03-03T03:22:02;102674.81;;;12.08;62.37
75006;BME280;63553;51.814;4.600;2023-03-03T03:24:28;102679.84;;;12.06;62.31
75006;BME280;63553;51.814;4.600;2023-03-03T03:26:53;102672.88;;;12.04;61.91
75006;BME280;63553;51.814;4.600;2023-03-03T03:29:18;102672.91;;;11.99;61.65
75006;BME280;63553;51.814;4.600;2023-03-03T03:31:44;102679.06;;;11.96;61.71
75006;BME280;63553;51.814;4.600;2023-03-03T03:34:09;102675.47;;;11.90;61.68
75006;BME280;63553;51.814;4.600;2023-03-03T03:36:34;102679.69;;;11.88;61.40
75006;BME280;63553;51.814;4.600;2023-03-03T03:39:00;102681.34;;;11.84;61.23
75006;BME280;63553;51.814;4.600;2023-03-03T03:41:27;102693.06;;;11.81;60.59
75006;BME280;63553;51.814;4.600;2023-03-03T03:43:52;102694.22;;;11.75;59.77
75006;BME280;63553;51.814;4.600;2023-03-03T03:46:17;102691.16;;;11.71;60.24
75006;BME280;63553;51.814;4.600;2023-03-03T03:48:43;102697.84;;;11.65;60.25
75006;BME280;63553;51.814;4.600;2023-03-03T03:51:10;102700.34;;;11.61;59.85
75006;BME280;63553;51.814;4.600;2023-03-03T03:53:36;102702.06;;;11.57;59.58
75006;BME280;63553;51.814;4.600;2023-03-03T03:56:01;102697.31;;;11.53;59.55
75006;BME280;63553;51.814;4.600;2023-03-03T03:58:27;102698.44;;;11.52;59.38
75006;BME280;63553;51.814;4.600;2023-03-03T04:00:52;102700.13;;;11.48;59.45
75006;BME280;63553;51.814;4.600;2023-03-03T04:03:17;102704.59;;;11.44;60.18
75006;BME280;63553;51.814;4.600;2023-03-03T04:05:43;102707.66;;;11.47;59.76
75006;BME280;63553;51.814;4.600;2023-03-03T04:08:08;102697.06;;;11.44;60.17
75006;BME280;63553;51.814;4.600;2023-03-03T04:10:34;102716.00;;;11.47;59.88
75006;BME280;63553;51.814;4.600;2023-03-03T04:12:59;102708.47;;;11.48;59.10
75006;BME280;63553;51.814;4.600;2023-03-03T04:15:25;102709.31;;;11.43;58.97
75006;BME280;63553;51.814;4.600;2023-03-03T04:17:50;102710.72;;;11.41;59.08
75006;BME280;63553;51.814;4.600;2023-03-03T04:20:15;102701.53;;;11.40;58.67
75006;BME280;63553;51.814;4.600;2023-03-03T04:22:41;102716.59;;;11.39;58.60
75006;BME280;63553;51.814;4.600;2023-03-03T04:25:08;102712.69;;;11.35;59.12
75006;BME280;63553;51.814;4.600;2023-03-03T04:27:35;102712.97;;;11.34;59.55
75006;BME280;63553;51.814;4.600;2023-03-03T04:30:01;102707.97;;;11.36;59.72
75006;BME280;63553;51.814;4.600;2023-03-03T04:32:27;102712.41;;;11.37;59.20
75006;BME280;63553;51.814;4.600;2023-03-03T04:34:53;102712.66;;;11.40;59.09
75006;BME280;63553;51.814;4.600;2023-03-03T04:37:18;102712.69;;;11.35;59.36
75006;BME280;63553;51.814;4.600;2023-03-03T04:39:44;102718.78;;;11.37;59.82
75006;BME280;63553;51.814;4.600;2023-03-03T04:42:09;102721.59;;;11.37;59.59
75006;BME280;63553;51.814;4.600;2023-03-03T04:44:34;102728.28;;;11.41;60.51
75006;BME280;63553;51.814;4.600;2023-03-03T04:47:00;102715.72;;;11.44;60.24
75006;BME280;63553;51.814;4.600;2023-03-03T04:49:25;102719.91;;;11.46;60.04
75006;BME280;63553;51.814;4.600;2023-03-03T04:51:51;102717.69;;;11.48;60.34
75006;BME280;63553;51.814;4.600;2023-03-03T04:54:16;102727.69;;;11.54;60.22
75006;BME280;63553;51.814;4.600;2023-03-03T04:56:41;102720.44;;;11.53;60.04
75006;BME280;63553;51.814;4.600;2023-03-03T04:59:07;102720.44;;;11.53;59.52
75006;BME280;63553;51.814;4.600;2023-03-03T05:01:32;102731.31;;;11.55;59.44
75006;BME280;63553;51.814;4.600;2023-03-03T05:03:58;102725.47;;;11.46;59.99
75006;BME280;63553;51.814;4.600;2023-03-03T05:06:23;102726.31;;;11.47;59.80
75006;BME280;63553;51.814;4.600;2023-03-03T05:08:48;102738.03;;;11.49;59.66
75006;BME280;63553;51.814;4.600;2023-03-03T05:11:13;102739.38;;;11.46;59.03
75006;BME280;63553;51.814;4.600;2023-03-03T05:13:39;102731.34;;;11.45;59.57
75006;BME280;63553;51.814;4.600;2023-03-03T05:16:05;102742.72;;;11.53;60.51
75006;BME280;63553;51.814;4.600;2023-03-03T05:18:30;102740.47;;;11.55;63.38
75006;BME280;63553;51.814;4.600;2023-03-03T05:20:56;102744.69;;;11.53;62.85
75006;BME280;63553;51.814;4.600;2023-03-03T05:23:22;102738.84;;;11.54;61.70
75006;BME280;63553;51.814;4.600;2023-03-03T05:25:48;102746.34;;;11.54;61.39
75006;BME280;63553;51.814;4.600;2023-03-03T05:28:14;102742.19;;;11.51;61.72
75006;BME280;63553;51.814;4.600;2023-03-03T05:30:39;102747.75;;;11.51;61.76
75006;BME280;63553;51.814;4.600;2023-03-03T05:33:05;102744.97;;;11.51;61.42
75006;BME280;63553;51.814;4.600;2023-03-03T05:35:31;102741.59;;;11.49;61.75
75006;BME280;63553;51.814;4.600;2023-03-03T05:37:57;102731.59;;;11.48;61.59
75006;BME280;63553;51.814;4.600;2023-03-03T05:40:23;102737.16;;;11.53;61.19
75006;BME280;63553;51.814;4.600;2023-03-03T05:42:49;102735.78;;;11.51;61.70
75006;BME280;63553;51.814;4.600;2023-03-03T05:45:14;102735.47;;;11.52;60.76
75006;BME280;63553;51.814;4.600;2023-03-03T05:47:39;102734.41;;;11.48;61.20
75006;BME280;63553;51.814;4.600;2023-03-03T05:50:05;102732.72;;;11.47;60.99
75006;BME280;63553;51.814;4.600;2023-03-03T05:52:30;102738.81;;;11.49;61.09
75006;BME280;63553;51.814;4.600;2023-03-03T05:54:56;102737.19;;;11.48;61.63
75006;BME280;63553;51.814;4.600;2023-03-03T05:57:22;102740.25;;;11.52;61.31
75006;BME280;63553;51.814;4.600;2023-03-03T05:59:47;102743.03;;;11.52;61.59
75006;BME280;63553;51.814;4.600;2023-03-03T06:02:13;102735.47;;;11.52;61.26
75006;BME280;63553;51.814;4.600;2023-03-03T06:04:38;102734.38;;;11.43;61.16
75006;BME280;63553;51.814;4.600;2023-03-03T06:07:04;102743.03;;;11.52;61.08
75006;BME280;63553;51.814;4.600;2023-03-03T06:09:31;102734.94;;;11.50;61.11
75006;BME280;63553;51.814;4.600;2023-03-03T06:11:56;102743.84;;;11.47;60.96
75006;BME280;63553;51.814;4.600;2023-03-03T06:14:21;102744.97;;;11.46;60.88
75006;BME280;63553;51.814;4.600;2023-03-03T06:16:47;102751.66;;;11.45;60.86
75006;BME280;63553;51.814;4.600;2023-03-03T06:19:13;102755.00;;;11.47;61.11
75006;BME280;63553;51.814;4.600;2023-03-03T06:21:39;102755.00;;;11.47;60.67
75006;BME280;63553;51.814;4.600;2023-03-03T06:24:05;102757.81;;;11.42;61.15
75006;BME280;63553;51.814;4.600;2023-03-03T06:26:31;102749.44;;;11.42;61.44
75006;BME280;63553;51.814;4.600;2023-03-03T06:28:57;102752.22;;;11.42;61.17
75006;BME280;63553;51.814;4.600;2023-03-03T06:31:23;102759.44;;;11.43;61.27
75006;BME280;63553;51.814;4.600;2023-03-03T06:33:49;102756.09;;;11.46;61.39
75006;BME280;63553;51.814;4.600;2023-03-03T06:36:15;102759.47;;;11.48;60.71
75006;BME280;63553;51.814;4.600;2023-03-03T06:38:41;102766.97;;;11.58;63.57
75006;BME280;63553;51.814;4.600;2023-03-03T06:41:06;102771.41;;;11.74;64.83
75006;BME280;63553;51.814;4.600;2023-03-03T06:43:33;102767.78;;;11.79;64.94
75006;BME280;63553;51.814;4.600;2023-03-03T06:45:58;102781.72;;;11.79;64.22
75006;BME280;63553;51.814;4.600;2023-03-03T06:48:24;102784.50;;;11.74;63.78
75006;BME280;63553;51.814;4.600;2023-03-03T06:50:49;102784.78;;;11.72;63.14
75006;BME280;63553;51.814;4.600;2023-03-03T06:53:17;102785.63;;;11.73;63.17
75006;BME280;63553;51.814;4.600;2023-03-03T06:55:43;102790.63;;;11.65;63.20
75006;BME280;63553;51.814;4.600;2023-03-03T06:58:19;102791.19;;;11.62;62.85
75006;BME280;63553;51.814;4.600;2023-03-03T07:00:53;102791.75;;;11.59;62.82
75006;BME280;63553;51.814;4.600;2023-03-03T07:03:22;102804.00;;;11.58;62.83
75006;BME280;63553;51.814;4.600;2023-03-03T07:05:48;102795.63;;;11.58;62.67
75006;BME280;63553;51.814;4.600;2023-03-03T07:08:16;102794.84;;;11.58;62.52
75006;BME280;63553;51.814;4.600;2023-03-03T07:10:43;102810.72;;;11.57;62.67
75006;BME280;63553;51.814;4.600;2023-03-03T07:15:40;102807.91;;;11.52;62.47
75006;BME280;63553;51.814;4.600;2023-03-03T07:18:20;102814.91;;;11.55;62.45
75006;BME280;63553;51.814;4.600;2023-03-03T07:20:47;102810.97;;;11.56;62.69
75006;BME280;63553;51.814;4.600;2023-03-03T07:23:19;102804.56;;;11.55;62.89
75006;BME280;63553;51.814;4.600;2023-03-03T07:25:46;102814.59;;;11.56;62.34
75006;BME280;63553;51.814;4.600;2023-03-03T07:28:26;102808.47;;;11.59;62.59
75006;BME280;63553;51.814;4.600;2023-03-03T07:30:54;102807.59;;;11.64;63.76
75006;BME280;63553;51.814;4.600;2023-03-03T07:33:26;102808.44;;;11.64;63.61
75006;BME280;63553;51.814;4.600;2023-03-03T07:35:57;102804.25;;;11.67;63.29
75006;BME280;63553;51.814;4.600;2023-03-03T07:38:40;102811.28;;;11.69;63.46
75006;BME280;63553;51.814;4.600;2023-03-03T07:41:12;102809.88;;;11.72;63.99
75006;BME280;63553;51.814;4.600;2023-03-03T07:43:42;102820.19;;;11.72;64.10
75006;BME280;63553;51.814;4.600;2023-03-03T07:46:26;102813.75;;;11.71;63.92
75006;BME280;63553;51.814;4.600;2023-03-03T07:48:53;102819.88;;;11.73;63.24
75006;BME280;63553;51.814;4.600;2023-03-03T07:51:24;102825.75;;;11.72;63.02
75006;BME280;63553;51.814;4.600;2023-03-03T07:53:53;102834.34;;;11.85;66.16
75006;BME280;63553;51.814;4.600;2023-03-03T07:56:27;102834.94;;;12.51;79.49
75006;BME280;63553;51.814;4.600;2023-03-03T07:58:53;102830.81;;;13.31;73.41
75006;BME280;63553;51.814;4.600;2023-03-03T08:03:52;102839.50;;;14.11;85.56
75006;BME280;63553;51.814;4.600;2023-03-03T08:09:22;102864.03;;;4.44;81.41
75006;BME280;63553;51.814;4.600;2023-03-03T08:11:54;102873.50;;;3.08;83.87
75006;BME280;63553;51.814;4.600;2023-03-03T08:14:26;102872.84;;;3.37;85.07
75006;BME280;63553;51.814;4.600;2023-03-03T08:16:52;102880.41;;;3.66;89.66
75006;BME280;63553;51.814;4.600;2023-03-03T08:19:18;102887.16;;;2.90;85.18
75006;BME280;63553;51.814;4.600;2023-03-03T08:21:43;102885.47;;;2.89;86.92
75006;BME280;63553;51.814;4.600;2023-03-03T08:24:09;102887.66;;;2.80;87.37
75006;BME280;63553;51.814;4.600;2023-03-03T08:26:34;102887.81;;;2.85;86.34
75006;BME280;63553;51.814;4.600;2023-03-03T08:29:00;102886.50;;;3.50;86.28
75006;BME280;63553;51.814;4.600;2023-03-03T08:31:25;102885.53;;;3.38;85.06
75006;BME280;63553;51.814;4.600;2023-03-03T08:33:51;102892.28;;;2.79;87.07
75006;BME280;63553;51.814;4.600;2023-03-03T08:36:17;102888.63;;;2.92;86.36
75006;BME280;63553;51.814;4.600;2023-03-03T08:38:42;102897.09;;;2.91;87.32
75006;BME280;63553;51.814;4.600;2023-03-03T08:41:08;102899.34;;;3.31;86.29
75006;BME280;63553;51.814;4.600;2023-03-03T08:43:33;102892.03;;;3.44;84.73
75006;BME280;63553;51.814;4.600;2023-03-03T08:46:00;102890.97;;;3.87;87.00
75006;BME280;63553;51.814;4.600;2023-03-03T08:48:26;102908.53;;;3.44;84.97
75006;BME280;63553;51.814;4.600;2023-03-03T08:50:53;102897.31;;;3.45;84.34
75006;BME280;63553;51.814;4.600;2023-03-03T08:53:19;102906.06;;;3.60;82.89
75006;BME280;63553;51.814;4.600;2023-03-03T08:55:45;102906.91;;;3.36;84.77
75006;BME280;63553;51.814;4.600;2023-03-03T08:58:12;102902.75;;;3.52;85.46
75006;BME280;63553;51.814;4.600;2023-03-03T09:00:37;102902.50;;;3.35;84.75
75006;BME280;63553;51.814;4.600;2023-03-03T09:03:03;102912.00;;;3.57;85.51
75006;BME280;63553;51.814;4.600;2023-03-03T09:05:32;102903.81;;;3.51;85.16
75006;BME280;63553;51.814;4.600;2023-03-03T09:07:57;102907.94;;;3.84;84.38
75006;BME280;63553;51.814;4.600;2023-03-03T09:10:24;102906.44;;;3.64;83.55
75006;BME280;63553;51.814;4.600;2023-03-03T09:12:56;102903.31;;;3.60;83.82
75006;BME280;63553;51.814;4.600;2023-03-03T09:15:30;102900.16;;;3.57;83.29
75006;BME280;63553;51.814;4.600;2023-03-03T09:18:17;102904.66;;;3.76;83.45
75006;BME280;63553;51.814;4.600;2023-03-03T09:20:48;102902.53;;;3.96;82.56
75006;BME280;63553;51.814;4.600;2023-03-03T09:25:49;102910.53;;;3.79;81.88
75006;BME280;63553;51.814;4.600;2023-03-03T09:28:23;102907.72;;;3.86;81.85
75006;BME280;63553;51.814;4.600;2023-03-03T09:30:52;102911.06;;;3.70;82.87
75006;BME280;63553;51.814;4.600;2023-03-03T09:33:30;102904.19;;;4.52;88.78
75006;BME280;63553;51.814;4.600;2023-03-03T09:36:28;102920.41;;;3.87;82.09
75006;BME280;63553;51.814;4.600;2023-03-03T09:38:55;102914.69;;;4.43;81.11
75006;BME280;63553;51.814;4.600;2023-03-03T09:43:58;102917.78;;;3.92;82.38
75006;BME280;63553;51.814;4.600;2023-03-03T09:57:16;102930.53;;;4.29;80.32
75006;BME280;63553;51.814;4.600;2023-03-03T10:02:42;102924.81;;;4.79;79.64
75006;BME280;63553;51.814;4.600;2023-03-03T10:18:32;102929.34;;;5.56;76.62
75006;BME280;63553;51.814;4.600;2023-03-03T10:36:53;102895.59;;;17.29;100.00
75006;BME280;63553;51.814;4.600;2023-03-03T10:51:01;102909.13;;;7.66;69.41
75006;BME280;63553;51.814;4.600;2023-03-03T10:53:34;102903.25;;;8.56;69.94
75006;BME280;63553;51.814;4.600;2023-03-03T10:56:56;102909.03;;;7.78;68.40
75006;BME280;63553;51.814;4.600;2023-03-03T11:02:00;102905.06;;;7.07;69.19
75006;BME280;63553;51.814;4.600;2023-03-03T11:07:15;102902.97;;;7.98;67.95
75006;BME280;63553;51.814;4.600;2023-03-03T11:32:04;102898.41;;;9.22;72.34
75006;BME280;63553;51.814;4.600;2023-03-03T11:34:38;102901.72;;;8.92;62.98
75006;BME280;63553;51.814;4.600;2023-03-03T11:37:14;102895.75;;;8.78;62.41
75006;BME280;63553;51.814;4.600;2023-03-03T11:39:43;102905.41;;;7.94;64.42
75006;BME280;63553;51.814;4.600;2023-03-03T11:42:25;102892.75;;;9.75;75.66
75006;BME280;63553;51.814;4.600;2023-03-03T11:45:02;102895.34;;;8.26;65.07
75006;BME280;63553;51.814;4.600;2023-03-03T11:50:36;102878.88;;;8.58;63.26
75006;BME280;63553;51.814;4.600;2023-03-03T11:55:43;102884.94;;;7.78;63.44
75006;BME280;63553;51.814;4.600;2023-03-03T11:58:33;102878.28;;;8.34;62.32
75006;BME280;63553;51.814;4.600;2023-03-03T12:03:46;102876.03;;;7.93;63.04
75006;BME280;63553;51.814;4.600;2023-03-03T12:09:48;102871.34;;;8.32;61.66
75006;BME280;63553;51.814;4.600;2023-03-03T12:31:44;102856.97;;;8.35;59.69
75006;BME280;63553;51.814;4.600;2023-03-03T12:46:06;102846.41;;;8.80;56.65
75006;BME280;63553;51.814;4.600;2023-03-03T12:48:41;102848.41;;;8.20;56.04
75006;BME280;63553;51.814;4.600;2023-03-03T12:53:50;102838.09;;;8.80;56.73
75006;BME280;63553;51.814;4.600;2023-03-03T12:56:36;102841.28;;;8.24;56.97
75006;BME280;63553;51.814;4.600;2023-03-03T13:04:46;102841.75;;;8.86;62.49
75006;BME280;63553;51.814;4.600;2023-03-03T13:10:11;102836.41;;;9.38;56.34
75006;BME280;63553;51.814;4.600;2023-03-03T13:15:26;102828.84;;;9.33;60.52
75006;BME280;63553;51.814;4.600;2023-03-03T13:18:01;102828.00;;;8.26;55.49
75006;BME280;63553;51.814;4.600;2023-03-03T13:20:39;102817.78;;;8.48;57.41
75006;BME280;63553;51.814;4.600;2023-03-03T13:23:41;102822.72;;;8.24;57.84
75006;BME280;63553;51.814;4.600;2023-03-03T13:26:14;102820.09;;;8.13;58.15
75006;BME280;63553;51.814;4.600;2023-03-03T13:29:04;102823.69;;;7.92;56.00
75006;BME280;63553;51.814;4.600;2023-03-03T13:31:37;102817.66;;;8.16;56.08
75006;BME280;63553;51.814;4.600;2023-03-03T13:34:04;102824.16;;;8.75;57.94
75006;BME280;63553;51.814;4.600;2023-03-03T13:36:50;102818.50;;;8.92;54.82
75006;BME280;63553;51.814;4.600;2023-03-03T13:39:22;102815.41;;;8.62;58.27
75006;BME280;63553;51.814;4.600;2023-03-03T13:41:52;102819.16;;;9.36;67.66
75006;BME280;63553;51.814;4.600;2023-03-03T13:44:34;102809.81;;;8.57;55.63
75006;BME280;63553;51.814;4.600;2023-03-03T13:52:30;102802.09;;;11.19;69.10
75006;BME280;63553;51.814;4.600;2023-03-03T13:55:10;102803.75;;;11.20;60.04
75006;BME280;63553;51.814;4.600;2023-03-03T13:57:58;102802.09;;;11.13;64.89
75006;BME280;63553;51.814;4.600;2023-03-03T14:00:44;102805.94;;;11.68;68.26
75006;BME280;63553;51.814;4.600;2023-03-03T14:06:26;102808.19;;;10.85;67.66
75006;BME280;63553;51.814;4.600;2023-03-03T14:14:47;102807.19;;;9.35;55.50
75006;BME280;63553;51.814;4.600;2023-03-03T14:17:33;102814.25;;;9.95;64.30
75006;BME280;63553;51.814;4.600;2023-03-03T14:20:14;102815.19;;;9.64;64.96
75006;BME280;63553;51.814;4.600;2023-03-03T14:23:03;102817.56;;;10.39;68.96
75006;BME280;63553;51.814;4.600;2023-03-03T14:28:18;102812.28;;;8.31;56.42
75006;BME280;63553;51.814;4.600;2023-03-03T14:30:44;102808.22;;;8.17;55.18
75006;BME280;63553;51.814;4.600;2023-03-03T14:36:02;102805.84;;;8.74;55.12
75006;BME280;63553;51.814;4.600;2023-03-03T14:43:43;102799.44;;;9.01;58.28
75006;BME280;63553;51.814;4.600;2023-03-03T14:48:56;102794.78;;;9.85;63.94
75006;BME280;63553;51.814;4.600;2023-03-03T14:54:13;102779.47;;;10.49;55.64
75006;BME280;63553;51.814;4.600;2023-03-03T14:59:24;102786.75;;;11.46;73.60
75006;BME280;63553;51.814;4.600;2023-03-03T15:04:46;102780.63;;;11.44;57.13
75006;BME280;63553;51.814;4.600;2023-03-03T15:07:32;102778.13;;;9.90;54.85
75006;BME280;63553;51.814;4.600;2023-03-03T15:09:59;102786.09;;;9.29;53.64
75006;BME280;63553;51.814;4.600;2023-03-03T15:17:36;102791.56;;;9.61;61.88
75006;BME280;63553;51.814;4.600;2023-03-03T15:22:57;102784.53;;;10.93;59.21
75006;BME280;63553;51.814;4.600;2023-03-03T15:25:36;102778.66;;;9.87;54.27
75006;BME280;63553;51.814;4.600;2023-03-03T15:28:29;102772.59;;;11.18;70.64
75006;BME280;63553;51.814;4.600;2023-03-03T15:37:02;102765.59;;;10.70;61.33
75006;BME280;63553;51.814;4.600;2023-03-03T15:42:21;102756.44;;;11.14;63.45
75006;BME280;63553;51.814;4.600;2023-03-03T15:48:00;102754.50;;;10.80;53.85
75006;BME280;63553;51.814;4.600;2023-03-03T16:01:52;102760.03;;;10.59;54.68
75006;BME280;63553;51.814;4.600;2023-03-03T16:04:25;102761.09;;;10.48;60.14
75006;BME280;63553;51.814;4.600;2023-03-03T16:07:05;102753.09;;;10.77;51.36
75006;BME280;63553;51.814;4.600;2023-03-03T16:09:50;102764.09;;;10.22;54.10
75006;BME280;63553;51.814;4.600;2023-03-03T16:12:29;102758.88;;;11.72;66.64
75006;BME280;63553;51.814;4.600;2023-03-03T16:15:20;102763.03;;;10.43;54.36
75006;BME280;63553;51.814;4.600;2023-03-03T16:25:50;102753.09;;;9.80;52.51
75006;BME280;63553;51.814;4.600;2023-03-03T16:31:08;102768.38;;;10.59;56.54
75006;BME280;63553;51.814;4.600;2023-03-03T16:33:39;102768.94;;;9.84;53.05
75006;BME280;63553;51.814;4.600;2023-03-03T16:39:00;102767.75;;;10.37;61.53
75006;BME280;63553;51.814;4.600;2023-03-03T16:44:38;102766.06;;;10.26;53.93
75006;BME280;63553;51.814;4.600;2023-03-03T16:52:43;102769.84;;;10.05;57.34
75006;BME280;63553;51.814;4.600;2023-03-03T16:55:18;102772.97;;;9.62;56.93
75006;BME280;63553;51.814;4.600;2023-03-03T16:57:58;102774.94;;;9.71;66.03
75006;BME280;63553;51.814;4.600;2023-03-03T17:00:28;102781.16;;;10.55;57.98
75006;BME280;63553;51.814;4.600;2023-03-03T17:08:02;102780.19;;;12.06;69.69
75006;BME280;63553;51.814;4.600;2023-03-03T17:18:25;102799.97;;;10.28;53.80
75006;BME280;63553;51.814;4.600;2023-03-03T17:20:59;102796.78;;;10.82;55.38
75006;BME280;63553;51.814;4.600;2023-03-03T17:23:48;102806.66;;;9.75;51.77
75006;BME280;63553;51.814;4.600;2023-03-03T17:39:49;102829.66;;;9.29;56.17
75006;BME280;63553;51.814;4.600;2023-03-03T17:45:09;102831.78;;;9.54;55.29
75006;BME280;63553;51.814;4.600;2023-03-03T17:50:59;102843.09;;;8.83;52.90
75006;BME280;63553;51.814;4.600;2023-03-03T18:12:18;102858.13;;;8.39;55.42
75006;BME280;63553;51.814;4.600;2023-03-03T18:15:02;102852.22;;;8.30;54.66